createdAt,value
2023-04-09T00:01:55.312Z,7.8
2023-04-09T00:04:26.212Z,7.8
2023-04-09T00:06:57.146Z,7.8
2023-04-09T00:09:26.508Z,7.9
2023-04-09T00:11:56.632Z,7.8
2023-04-09T00:14:27.489Z,7.8
2023-04-09T00:16:58.221Z,7.8
2023-04-09T00:19:28.844Z,7.8
2023-04-09T00:21:59.875Z,7.8
2023-04-09T00:24:33.273Z,7.7
2023-04-09T00:27:03.954Z,7.7
2023-04-09T00:29:34.748Z,7.7
2023-04-09T00:32:06.608Z,7.6
2023-04-09T00:34:37.470Z,7.6
2023-04-09T00:37:08.429Z,7.6
2023-04-09T00:39:37.461Z,7.5
2023-04-09T00:42:08.105Z,7.6
2023-04-09T00:44:39.699Z,7.6
2023-04-09T00:47:10.573Z,7.5
2023-04-09T00:49:41.076Z,7.4
2023-04-09T00:52:11.195Z,7.4
2023-04-09T00:54:42.124Z,7.2
2023-04-09T00:57:13.038Z,7.2
2023-04-09T00:59:44.007Z,7.3
2023-04-09T01:02:14.838Z,7.3
2023-04-09T01:04:45.766Z,7.3
2023-04-09T01:07:16.531Z,7.2
2023-04-09T01:09:48.748Z,7.3
2023-04-09T01:12:20.180Z,7.1
2023-04-09T01:17:30.649Z,7.1
2023-04-09T01:20:01.540Z,7.2
2023-04-09T01:22:32.601Z,7.1
2023-04-09T01:25:03.643Z,7.1
2023-04-09T01:27:34.734Z,7.1
2023-04-09T01:30:05.600Z,7.1
2023-04-09T01:32:37.424Z,7.1
2023-04-09T01:35:08.593Z,7
2023-04-09T01:37:40.198Z,7.1
2023-04-09T01:40:11.079Z,6.9
2023-04-09T01:42:41.564Z,6.9
2023-04-09T01:45:12.538Z,7.1
2023-04-09T01:47:51.454Z,7.1
2023-04-09T01:50:22.676Z,7.1
2023-04-09T01:52:53.445Z,7.1
2023-04-09T01:55:27.400Z,7.1
2023-04-09T01:58:01.727Z,7
2023-04-09T02:00:44.549Z,6.9
2023-04-09T02:03:18.711Z,7.1
2023-04-09T02:05:49.907Z,7
2023-04-09T02:08:20.363Z,7.1
2023-04-09T02:10:53.708Z,7
2023-04-09T02:13:24.628Z,6.9
2023-04-09T02:15:57.482Z,6.8
2023-04-09T02:18:29.882Z,6.7
2023-04-09T02:21:00.879Z,6.8
2023-04-09T02:23:31.504Z,6.9
2023-04-09T02:26:02.591Z,6.8
2023-04-09T02:28:33.378Z,6.9
2023-04-09T02:31:04.238Z,6.7
2023-04-09T02:33:35.470Z,6.8
2023-04-09T02:36:06.584Z,6.8
2023-04-09T02:38:39.972Z,6.7
2023-04-09T02:41:10.907Z,6.6
2023-04-09T02:43:41.659Z,6.6
2023-04-09T02:46:12.537Z,6.6
2023-04-09T02:48:43.563Z,6.6
2023-04-09T02:51:14.704Z,6.5
2023-04-09T02:53:45.605Z,6.4
2023-04-09T02:56:16.380Z,6.3
2023-04-09T02:58:47.641Z,6.2
2023-04-09T03:01:18.121Z,6.3
2023-04-09T03:03:49.131Z,6.1
2023-04-09T03:06:19.975Z,5.9
2023-04-09T03:08:51.353Z,6
2023-04-09T03:11:22.077Z,6.1
2023-04-09T03:13:51.459Z,6
2023-04-09T03:16:22.042Z,6.2
2023-04-09T03:18:53.410Z,6.3
2023-04-09T03:21:24.149Z,6.2
2023-04-09T03:23:54.719Z,6.2
2023-04-09T03:26:29.660Z,6.2
2023-04-09T03:29:00.105Z,6.2
2023-04-09T03:31:30.845Z,6.2
2023-04-09T03:34:05.565Z,6.1
2023-04-09T03:36:36.180Z,6.1
2023-04-09T03:39:06.724Z,6.2
2023-04-09T03:41:40.337Z,6.1
2023-04-09T03:44:11.586Z,6
2023-04-09T03:46:44.533Z,6.1
2023-04-09T03:49:13.677Z,6
2023-04-09T03:51:43.809Z,6.1
2023-04-09T03:54:16.820Z,6
2023-04-09T03:56:47.855Z,5.9
2023-04-09T03:59:23.216Z,5.9
2023-04-09T04:01:53.658Z,5.8
2023-04-09T04:04:24.454Z,6
2023-04-09T04:06:56.269Z,5.9
2023-04-09T04:09:26.927Z,6
2023-04-09T04:11:57.143Z,5.9
2023-04-09T04:14:27.532Z,6
2023-04-09T04:16:58.060Z,6
2023-04-09T04:19:29.426Z,6
2023-04-09T04:22:00.454Z,5.9
2023-04-09T04:24:31.178Z,5.8
2023-04-09T04:27:02.016Z,5.9
2023-04-09T04:29:33.824Z,5.9
2023-04-09T04:32:05.040Z,5.9
2023-04-09T04:34:35.597Z,5.9
2023-04-09T04:37:06.209Z,5.9
2023-04-09T04:39:37.458Z,5.9
2023-04-09T04:42:07.904Z,5.9
2023-04-09T04:44:38.636Z,6
2023-04-09T04:47:09.633Z,6
2023-04-09T04:49:40.515Z,5.9
2023-04-09T04:52:13.427Z,6
2023-04-09T04:54:45.177Z,5.9
2023-04-09T04:57:16.427Z,6
2023-04-09T04:59:45.961Z,6
2023-04-09T05:02:20.122Z,6
2023-04-09T05:04:50.749Z,6
2023-04-09T05:07:26.477Z,5.9
2023-04-09T05:09:57.074Z,6.2
2023-04-09T05:12:29.191Z,6.2
2023-04-09T05:14:59.982Z,6.1
2023-04-09T05:17:30.764Z,6.2
2023-04-09T05:20:02.259Z,6.3
2023-04-09T05:22:32.844Z,6.3
2023-04-09T05:25:04.280Z,6.3
2023-04-09T05:27:35.305Z,6.3
2023-04-09T05:30:05.666Z,6.3
2023-04-09T05:32:36.342Z,6.4
2023-04-09T05:35:07.424Z,6.6
2023-04-09T05:37:37.822Z,6.7
2023-04-09T05:40:08.379Z,6.8
2023-04-09T05:42:38.803Z,6.9
2023-04-09T05:45:09.143Z,7
2023-04-09T05:47:40.874Z,7.1
2023-04-09T05:50:12.639Z,7.2
2023-04-09T05:52:43.543Z,7.3
2023-04-09T05:55:14.528Z,7.4
2023-04-09T05:57:45.545Z,7.4
2023-04-09T06:00:18.597Z,7.4
2023-04-09T06:02:49.069Z,7.5
2023-04-09T06:05:19.232Z,7.7
2023-04-09T06:07:52.927Z,7.9
2023-04-09T06:10:25.249Z,7.9
2023-04-09T06:12:58.234Z,8
2023-04-09T06:15:29.624Z,8.2
2023-04-09T06:18:01.095Z,8.3
2023-04-09T06:20:32.016Z,8.4
2023-04-09T06:23:03.743Z,8.6
2023-04-09T06:25:33.145Z,8.7
2023-04-09T06:28:05.311Z,8.9
2023-04-09T06:30:37.349Z,8.9
2023-04-09T06:33:14.284Z,9
2023-04-09T06:35:45.445Z,9
2023-04-09T06:38:16.231Z,9.2
2023-04-09T06:40:47.946Z,9.4
2023-04-09T06:43:18.459Z,9.4
2023-04-09T06:45:47.797Z,9.5
2023-04-09T06:48:18.539Z,9.6
2023-04-09T06:50:48.994Z,9.6
2023-04-09T06:53:22.311Z,9.7
2023-04-09T06:55:55.485Z,9.7
2023-04-09T06:58:24.839Z,9.8
2023-04-09T07:00:55.930Z,9.8
2023-04-09T07:03:28.032Z,9.9
2023-04-09T07:06:01.771Z,10
2023-04-09T07:08:32.478Z,10
2023-04-09T07:11:03.147Z,10.1
2023-04-09T07:13:36.733Z,10.2
2023-04-09T07:16:07.899Z,10.2
2023-04-09T07:18:38.741Z,10.4
2023-04-09T07:21:13.234Z,10.4
2023-04-09T07:23:48.176Z,10.6
2023-04-09T07:26:18.551Z,10.6
2023-04-09T07:28:49.616Z,10.6
2023-04-09T07:31:20.283Z,10.5
2023-04-09T07:33:51.434Z,10.6
2023-04-09T07:36:22.057Z,10.7
2023-04-09T07:38:52.916Z,10.7
2023-04-09T07:41:23.399Z,10.8
2023-04-09T07:43:53.963Z,10.9
2023-04-09T07:46:24.155Z,11
2023-04-09T07:48:55.730Z,10.9
2023-04-09T07:51:26.508Z,11
2023-04-09T07:53:58.366Z,11.2
2023-04-09T07:56:32.433Z,11.4
2023-04-09T07:59:01.776Z,11.5
2023-04-09T08:01:32.612Z,11.6
2023-04-09T08:04:03.623Z,11.6
2023-04-09T08:06:34.244Z,11.5
2023-04-09T08:09:05.880Z,11.5
2023-04-09T08:11:37.800Z,11.8
2023-04-09T08:14:08.730Z,11.9
2023-04-09T08:16:39.399Z,11.9
2023-04-09T08:19:10.124Z,12.1
2023-04-09T08:21:41.824Z,12.1
2023-04-09T08:24:12.337Z,12.2
2023-04-09T08:26:42.910Z,12.2
2023-04-09T08:29:13.799Z,12.4
2023-04-09T08:31:44.779Z,12.5
2023-04-09T08:34:17.550Z,12.6
2023-04-09T08:36:54.332Z,12.8
2023-04-09T08:39:24.409Z,12.9
2023-04-09T08:41:56.416Z,13
2023-04-09T08:44:26.740Z,13.1
2023-04-09T08:46:59.149Z,13.1
2023-04-09T08:49:30.005Z,13.1
2023-04-09T08:52:02.179Z,13.3
2023-04-09T08:54:32.229Z,13.4
2023-04-09T08:57:03.160Z,13.4
2023-04-09T08:59:37.535Z,13.5
2023-04-09T09:02:09.149Z,13.5
2023-04-09T09:04:40.292Z,13.5
2023-04-09T09:07:12.716Z,13.5
2023-04-09T09:09:45.668Z,13.6
2023-04-09T09:12:17.726Z,13.8
2023-04-09T09:14:48.838Z,13.9
2023-04-09T09:17:23.411Z,13.8
2023-04-09T09:19:55.313Z,14
2023-04-09T09:22:27.077Z,14.1
2023-04-09T09:24:58.320Z,13.9
2023-04-09T09:27:29.328Z,14.1
2023-04-09T09:30:02.931Z,13.8
2023-04-09T09:32:37.055Z,13.9
2023-04-09T09:35:07.498Z,13.9
2023-04-09T09:37:37.956Z,13.8
2023-04-09T09:40:07.754Z,13.9
2023-04-09T09:42:38.407Z,13.9
2023-04-09T09:45:09.360Z,13.9
2023-04-09T09:47:38.320Z,13.7
2023-04-09T09:50:10.801Z,13.8
2023-04-09T09:52:41.458Z,14
2023-04-09T09:55:11.671Z,14.1
2023-04-09T09:57:42.171Z,14.3
2023-04-09T10:00:13.491Z,13.9
2023-04-09T10:02:45.783Z,14
2023-04-09T10:05:16.598Z,14.1
2023-04-09T10:07:48.441Z,14.1
2023-04-09T10:10:18.950Z,13.9
2023-04-09T10:12:53.387Z,14
2023-04-09T10:15:25.810Z,14
2023-04-09T10:17:57.146Z,13.9
2023-04-09T10:20:26.291Z,13.8
2023-04-09T10:22:56.641Z,14
2023-04-09T10:25:27.520Z,14.1
2023-04-09T10:27:56.749Z,14.2
2023-04-09T10:30:27.084Z,14.3
2023-04-09T10:33:02.950Z,14.4
2023-04-09T10:35:33.689Z,14.7
2023-04-09T10:38:04.751Z,14.8
2023-04-09T10:40:35.259Z,14.7
2023-04-09T10:43:05.833Z,14.7
2023-04-09T10:45:36.803Z,14.5
2023-04-09T10:48:08.209Z,14.5
2023-04-09T10:50:40.439Z,14.6
2023-04-09T10:53:10.857Z,14.8
2023-04-09T10:55:42.509Z,14.9
2023-04-09T10:58:14.627Z,14.9
2023-04-09T11:00:45.561Z,14.9
2023-04-09T11:03:20.237Z,14.7
2023-04-09T11:05:53.993Z,14.8
2023-04-09T11:08:28.966Z,14.8
2023-04-09T11:10:59.823Z,14.8
2023-04-09T11:13:32.501Z,14.5
2023-04-09T11:16:01.810Z,14.6
2023-04-09T11:18:33.966Z,14.6
2023-04-09T11:21:05.482Z,14.6
2023-04-09T11:23:35.991Z,14.6
2023-04-09T11:26:06.896Z,14.6
2023-04-09T11:28:39.280Z,14.6
2023-04-09T11:31:10.670Z,14.6
2023-04-09T11:33:40.960Z,14.6
2023-04-09T11:36:13.055Z,14.5
2023-04-09T11:38:44.221Z,14.6
2023-04-09T11:41:14.602Z,14.6
2023-04-09T11:43:45.080Z,14.7
2023-04-09T11:46:15.510Z,14.6
2023-04-09T11:48:46.505Z,14.5
2023-04-09T11:51:16.492Z,14.6
2023-04-09T11:53:46.950Z,14.6
2023-04-09T11:56:17.748Z,14.7
2023-04-09T11:58:48.104Z,14.7
2023-04-09T12:01:18.393Z,14.8
2023-04-09T12:03:48.858Z,14.7
2023-04-09T12:06:19.276Z,15
2023-04-09T12:08:49.558Z,15.1
2023-04-09T12:11:20.834Z,15.3
2023-04-09T12:13:51.232Z,15.4
2023-04-09T12:16:21.780Z,15.5
2023-04-09T12:18:53.484Z,15.6
2023-04-09T12:21:25.992Z,15.6
2023-04-09T12:23:56.403Z,15.6
2023-04-09T12:26:26.833Z,15.7
2023-04-09T12:28:57.476Z,15.7
2023-04-09T12:31:27.923Z,15.6
2023-04-09T12:34:03.507Z,15.3
2023-04-09T12:36:33.884Z,14.8
2023-04-09T12:39:04.513Z,14.9
2023-04-09T12:41:40.940Z,14.8
2023-04-09T12:44:11.320Z,14.8
2023-04-09T12:46:41.658Z,14.7
2023-04-09T12:49:12.251Z,14.6
2023-04-09T12:51:42.779Z,14.7
2023-04-09T12:54:13.445Z,14.8
2023-04-09T12:56:44.074Z,14.7
2023-04-09T12:59:14.787Z,14.6
2023-04-09T13:01:45.460Z,14.5
2023-04-09T13:04:17.316Z,14.4
2023-04-09T13:06:49.089Z,14.2
2023-04-09T13:09:20.834Z,14.3
2023-04-09T13:11:52.730Z,14.4
2023-04-09T13:14:22.789Z,14.3
2023-04-09T13:16:55.604Z,14.3
2023-04-09T13:19:27.115Z,14.3
2023-04-09T13:21:58.868Z,14.4
2023-04-09T13:24:29.585Z,14.4
2023-04-09T13:27:00.831Z,14.2
2023-04-09T13:29:32.460Z,14.2
2023-04-09T13:32:03.110Z,14.2
2023-04-09T13:34:36.056Z,14.5
2023-04-09T13:37:06.802Z,14.8
2023-04-09T13:39:37.510Z,14.9
2023-04-09T13:42:13.464Z,14.8
2023-04-09T13:44:39.024Z,14.7
2023-04-09T13:47:10.527Z,14.7
2023-04-09T13:49:40.748Z,14.8
2023-04-09T13:52:11.341Z,14.8
2023-04-09T13:54:41.865Z,14.6
2023-04-09T13:57:12.422Z,14.5
2023-04-09T13:59:43.328Z,14.5
2023-04-09T14:02:13.974Z,14.7
2023-04-09T14:04:44.351Z,14.8
2023-04-09T14:07:14.707Z,14.8
2023-04-09T14:09:45.252Z,14.7
2023-04-09T14:12:15.754Z,14.7
2023-04-09T14:14:46.102Z,14.7
2023-04-09T14:17:16.585Z,14.6
2023-04-09T14:19:48.537Z,14.6
2023-04-09T14:22:18.907Z,14.7
2023-04-09T14:24:51.210Z,14.9
2023-04-09T14:27:24.095Z,14.8
2023-04-09T14:29:55.100Z,14.9
2023-04-09T14:32:25.504Z,14.9
2023-04-09T14:34:55.659Z,14.9
2023-04-09T14:37:27.239Z,14.9
2023-04-09T14:39:57.482Z,14.7
2023-04-09T14:42:29.570Z,14.6
2023-04-09T14:45:00.372Z,14.4
2023-04-09T14:50:03.777Z,14.3
2023-04-09T14:52:35.009Z,14.3
2023-04-09T14:55:10.406Z,14.1
2023-04-09T14:57:41.130Z,14.2
2023-04-09T15:00:12.199Z,13.9
2023-04-09T15:02:43.213Z,14
2023-04-09T15:05:12.242Z,13.9
2023-04-09T15:10:29.659Z,13.6
2023-04-09T15:13:05.023Z,13.9
2023-04-09T15:15:35.689Z,13.9
2023-04-09T15:18:08.638Z,13.9
2023-04-09T15:20:39.975Z,14.1
2023-04-09T15:23:13.226Z,13.9
2023-04-09T15:25:47.188Z,13.9
2023-04-09T15:28:20.299Z,13.9
2023-04-09T15:30:50.670Z,13.9
2023-04-09T15:33:21.387Z,13.9
2023-04-09T15:35:51.824Z,13.9
2023-04-09T15:38:22.229Z,13.9
2023-04-09T15:40:52.643Z,13.9
2023-04-09T15:43:23.026Z,13.9
2023-04-09T15:45:54.456Z,13.9
2023-04-09T15:48:25.644Z,13.9
2023-04-09T15:50:56.206Z,13.8
2023-04-09T15:53:26.602Z,13.9
2023-04-09T15:55:57.660Z,13.8
2023-04-09T15:58:27.776Z,13.9
2023-04-09T16:00:59.188Z,14
2023-04-09T16:03:32.997Z,14
2023-04-09T16:06:03.597Z,13.9
2023-04-09T16:08:34.010Z,13.8
2023-04-09T16:11:05.661Z,13.9
2023-04-09T16:13:36.274Z,13.9
2023-04-09T16:16:09.752Z,13.9
2023-04-09T16:18:40.396Z,13.8
2023-04-09T16:21:11.085Z,13.8
2023-04-09T16:23:42.524Z,13.9
2023-04-09T16:26:15.108Z,13.8
2023-04-09T16:28:48.503Z,13.8
2023-04-09T16:31:19.408Z,13.7
2023-04-09T16:33:50.676Z,13.7
2023-04-09T16:36:22.457Z,13.6
2023-04-09T16:38:54.191Z,13.6
2023-04-09T16:41:25.734Z,13.5
2023-04-09T16:43:55.777Z,13.4
2023-04-09T16:46:28.527Z,13.3
2023-04-09T16:49:04.390Z,13.4
2023-04-09T16:51:35.245Z,13.4
2023-04-09T16:54:10.007Z,13.3
2023-04-09T16:56:41.799Z,13.3
2023-04-09T16:59:16.979Z,13.2
2023-04-09T17:01:52.588Z,13.3
2023-04-09T17:04:26.938Z,13.2
2023-04-09T17:06:58.384Z,13.2
2023-04-09T17:09:29.747Z,13.1
2023-04-09T17:11:59.124Z,13
2023-04-09T17:14:35.792Z,13.1
2023-04-09T17:17:06.684Z,13
2023-04-09T17:19:37.847Z,13
2023-04-09T17:22:08.718Z,13
2023-04-09T17:24:40.290Z,12.9
2023-04-09T17:27:11.814Z,12.9
2023-04-09T17:29:44.854Z,12.9
2023-04-09T17:32:15.003Z,12.9
2023-04-09T17:34:45.570Z,12.9
2023-04-09T17:37:21.199Z,12.8
2023-04-09T17:39:53.916Z,12.8
2023-04-09T17:42:24.791Z,12.8
2023-04-09T17:44:56.155Z,12.8
2023-04-09T17:47:32.355Z,12.7
2023-04-09T17:50:02.835Z,12.8
2023-04-09T17:52:38.141Z,12.8
2023-04-09T17:55:14.709Z,12.8
2023-04-09T17:57:45.162Z,12.9
2023-04-09T18:00:15.327Z,12.8
2023-04-09T18:02:47.196Z,12.6
2023-04-09T18:05:15.856Z,12.7
2023-04-09T18:07:51.746Z,12.6
2023-04-09T18:10:26.479Z,12.6
2023-04-09T18:12:55.215Z,12.6
2023-04-09T18:15:25.710Z,12.6
2023-04-09T18:17:57.184Z,12.7
2023-04-09T18:20:27.738Z,12.6
2023-04-09T18:23:00.680Z,12.7
2023-04-09T18:25:32.028Z,12.7
2023-04-09T18:28:02.478Z,12.7
2023-04-09T18:30:32.991Z,12.7
2023-04-09T18:33:04.804Z,12.6
2023-04-09T18:35:38.916Z,12.7
2023-04-09T18:38:08.870Z,12.6
2023-04-09T18:40:50.035Z,12.6
2023-04-09T18:43:21.584Z,12.6
2023-04-09T18:45:52.125Z,12.6
2023-04-09T18:48:22.495Z,12.5
2023-04-09T18:50:58.702Z,12.5
2023-04-09T18:53:30.174Z,12.5
2023-04-09T18:56:07.979Z,12.4
2023-04-09T18:58:40.631Z,12.4
2023-04-09T19:01:12.906Z,12.5
2023-04-09T19:03:46.015Z,12.5
2023-04-09T19:06:16.382Z,12.5
2023-04-09T19:08:46.659Z,12.4
2023-04-09T19:11:19.071Z,12.3
2023-04-09T19:13:50.013Z,12.3
2023-04-09T19:16:20.580Z,12.3
2023-04-09T19:18:51.453Z,12.3
2023-04-09T19:21:23.012Z,12.3
2023-04-09T19:23:56.198Z,12.2
2023-04-09T19:26:27.135Z,12.3
2023-04-09T19:31:38.349Z,12.1
2023-04-09T19:34:11.034Z,12
2023-04-09T19:36:43.732Z,12.1
2023-04-09T19:39:14.774Z,12.1
2023-04-09T19:41:50.221Z,12.1
2023-04-09T19:44:23.415Z,12.1
2023-04-09T19:46:53.957Z,12.1
2023-04-09T19:49:24.217Z,12.2
2023-04-09T19:51:55.906Z,12.1
2023-04-09T19:54:35.731Z,12.1
2023-04-09T19:57:06.757Z,12
2023-04-09T19:59:35.747Z,12
2023-04-09T20:02:06.382Z,12.1
2023-04-09T20:04:37.958Z,12
2023-04-09T20:07:07.931Z,12
2023-04-09T20:09:38.410Z,11.9
2023-04-09T20:12:10.866Z,11.9
2023-04-09T20:14:44.600Z,11.9
2023-04-09T20:17:17.681Z,11.9
2023-04-09T20:19:53.597Z,11.9
2023-04-09T20:22:23.919Z,11.8
2023-04-09T20:24:54.417Z,11.8
2023-04-09T20:27:25.918Z,11.7
2023-04-09T20:29:57.345Z,11.7
2023-04-09T20:32:31.727Z,11.7
2023-04-09T20:35:02.261Z,11.6
2023-04-09T20:37:34.662Z,11.8
2023-04-09T20:40:05.266Z,11.8
2023-04-09T20:42:35.789Z,11.7
2023-04-09T20:45:08.607Z,11.6
2023-04-09T20:47:41.846Z,11.5
2023-04-09T20:50:13.612Z,11.5
2023-04-09T20:52:44.940Z,11.6
2023-04-09T20:55:17.276Z,11.6
2023-04-09T20:57:49.076Z,11.6
2023-04-09T21:00:19.832Z,11.4
2023-04-09T21:02:48.732Z,11.4
2023-04-09T21:05:23.755Z,11.4
2023-04-09T21:10:31.157Z,11.3
2023-04-09T21:13:09.942Z,11.2
2023-04-09T21:15:47.185Z,11.2
2023-04-09T21:18:17.494Z,11.3
2023-04-09T21:20:48.805Z,11.3
2023-04-09T21:23:21.194Z,11.3
2023-04-09T21:25:51.436Z,11.2
2023-04-09T21:28:25.377Z,11.1
2023-04-09T21:30:57.666Z,11.1
2023-04-09T21:33:30.101Z,11.1
2023-04-09T21:35:59.128Z,11
2023-04-09T21:38:42.044Z,10.9
2023-04-09T21:41:14.569Z,10.9
2023-04-09T21:43:45.302Z,10.9
2023-04-09T21:46:19.825Z,10.9
2023-04-09T21:48:56.211Z,10.8
2023-04-09T21:51:33.581Z,10.8
2023-04-09T21:54:04.458Z,10.8
2023-04-09T21:56:35.794Z,10.8
2023-04-09T21:59:09.806Z,10.7
2023-04-09T22:01:40.838Z,10.7
2023-04-09T22:04:16.803Z,10.6
2023-04-09T22:06:48.239Z,10.4
2023-04-09T22:09:17.208Z,10.4
2023-04-09T22:11:53.706Z,10.4
2023-04-09T22:14:25.525Z,10.3
2023-04-09T22:16:56.096Z,10.3
2023-04-09T22:19:27.457Z,10.3
2023-04-09T22:21:58.077Z,10.3
2023-04-09T22:24:28.547Z,10.3
2023-04-09T22:26:59.201Z,10.3
2023-04-09T22:29:31.567Z,10.2
2023-04-09T22:32:02.455Z,10.1
2023-04-09T22:34:32.055Z,10
2023-04-09T22:37:02.630Z,10
2023-04-09T22:39:33.114Z,10
2023-04-09T22:42:02.412Z,9.9
2023-04-09T22:44:33.340Z,9.8
2023-04-09T22:47:03.802Z,9.8
2023-04-09T22:49:32.732Z,9.9
2023-04-09T22:52:02.398Z,9.9
2023-04-09T22:54:33.074Z,9.9
2023-04-09T22:57:03.826Z,9.8
2023-04-09T23:02:06.852Z,9.7
2023-04-09T23:04:37.650Z,9.7
2023-04-09T23:07:08.187Z,9.7
2023-04-09T23:09:38.723Z,9.7
2023-04-09T23:12:14.882Z,9.6
2023-04-09T23:14:47.026Z,9.6
2023-04-09T23:17:19.525Z,9.6
2023-04-09T23:19:50.531Z,9.6
2023-04-09T23:22:21.261Z,9.7
2023-04-09T23:24:51.803Z,9.7
2023-04-09T23:27:22.456Z,9.7
2023-04-09T23:29:55.240Z,9.6
2023-04-09T23:32:31.384Z,9.7
2023-04-09T23:35:02.570Z,9.7
2023-04-09T23:37:35.469Z,9.7
2023-04-09T23:40:06.106Z,9.6
2023-04-09T23:42:39.032Z,9.6
2023-04-09T23:45:09.900Z,9.7
2023-04-09T23:47:40.465Z,9.7
2023-04-09T23:50:13.061Z,9.6
2023-04-09T23:52:43.580Z,9.7
2023-04-09T23:55:14.271Z,9.6
2023-04-09T23:57:45.230Z,9.7
